• Join FlightAware (Why Join?)
  • Login
  • US Flag 
05:38PM EDT


 

Airport Tracker/Info


-or-


 

Live Flight TrackerFlight Track Log ✈ VOZ1488 ✈ 08-May-2013 ✈ YBRM / BME - YPPH / PER

Flight Track Log - Related Links

Times and Time Zones

All times are in EDT time to prevent confusion due to time zone crossing. See the VOZ1488 flight status page for this flight to view local times or setup timezone preferences in your user account.

Time Position Orientation Groundspeed Altitude Reporting Facility
EDT Latitude Longitude Course Direction KTS MPH feet Rate Location/Type
08:06AM -17.9984 122.1996 203° Southwest 16,500  Level Aus ATC (Calculated)
08:07AM -17.9984 122.1996 203° Southwest 16,500 780 Level Aus ATC (Calculated)
08:07AM -18.1024 122.1282 202° Southwest 16,500 780 Level Aus ATC (Calculated)
08:08AM -18.1024 122.1282 202° Southwest 16,500 840 Level Aus ATC (Calculated)
08:09AM -18.2065 122.0567 202° Southwest 16,500 840 Level Aus ATC (Calculated)
08:10AM -18.2065 122.0567 202° Southwest 16,500 900 Level Aus ATC (Calculated)
08:11AM -18.3145 122.0116 202° Southwest  Level FlightAware Approximate
08:11AM -18.3105 121.9851 202° Southwest 16,500  Level Aus ATC (Calculated)
08:12AM -18.4534 121.9120 201° Southwest 38,000 960 Climbing Aus ATC (Calculated)
08:13AM -18.5444 121.8747 201° Southwest 38,000  Level Aus ATC (Calculated)
08:14AM -18.6159 121.8453 201° Southwest  Level FlightAware Approximate
08:15AM -18.6960 121.8124 201° Southwest  Level FlightAware Approximate
08:16AM -18.8043 121.7678 201° Southwest  Level FlightAware Approximate
08:16AM -18.8171 121.7625 201° Southwest 38,000  Level Aus ATC (Calculated)
08:18AM -18.9849 121.6933 201° Southwest  Level FlightAware Approximate
08:18AM -19.0897 121.6500 201° Southwest 38,000  Level Aus ATC (Calculated)
08:19AM -19.0931 121.6486 201° Southwest  Level FlightAware Approximate
08:20AM -19.2575 121.5805 201° Southwest  Level FlightAware Approximate
08:20AM -19.2715 121.5747 201° Southwest 38,000  Level Aus ATC (Calculated)
08:22AM -19.4392 121.5051 201° Southwest  Level FlightAware Approximate
08:23AM -19.5474 121.4601 201° Southwest  Level FlightAware Approximate
08:23AM -19.6348 121.4237 202° Southwest 38,000  Level Aus ATC (Calculated)
08:24AM -19.8164 121.3480 202° Southwest 38,000 60 Level Aus ATC (Calculated)
08:26AM -19.9610 121.2876 201° Southwest  Level FlightAware Approximate
08:26AM -19.9293 121.3008 202° Southwest 38,000  Level Aus ATC (Calculated)
08:27AM -20.0422 121.2536 202° Southwest 38,000 60 Level Aus ATC (Calculated)
08:29AM -20.2545 121.1645 201° Southwest  Level FlightAware Approximate
08:30AM -20.3643 121.1184 202° Southwest  Level FlightAware Approximate
08:31AM -20.4741 121.0722 202° Southwest  Level FlightAware Approximate
08:32AM -20.5839 121.0259 202° Southwest  Level FlightAware Approximate
08:32AM -20.6063 121.0164 202° Southwest 38,000  Level Aus ATC (Calculated)
08:33AM -20.8312 120.9179 202° Southwest 399 459 38,700 540 Climbing Aus ATC (RADAR)
08:34AM -20.9046 120.8889 200° South 415 478 39,300 420 Climbing Aus ATC (RADAR)
08:34AM -20.9785 120.8610 199° South 415 478 39,300  Level Aus ATC (RADAR)
08:35AM -21.0321 120.8393 201° Southwest 414 476 39,300  Level Aus ATC (RADAR)
08:36AM -21.1026 120.8094 202° Southwest 410 472 39,300  Level Aus ATC (RADAR)
08:36AM -21.1635 120.7820 203° Southwest 409 471 39,300  Level Aus ATC (RADAR)
08:37AM -21.2182 120.7605 200° South 411 473 39,300  Level Aus ATC (RADAR)
08:37AM -21.2881 120.7302 202° Southwest 407 468 39,300  Level Aus ATC (RADAR)
08:38AM -21.3498 120.7047 201° Southwest 407 468 39,300  Level Aus ATC (RADAR)
08:39AM -21.4274 120.6704 202° Southwest 402 463 39,300  Level Aus ATC (RADAR)
08:39AM -21.4704 120.6513 202° Southwest 402 463 39,300  Level Aus ATC (RADAR)
08:40AM -21.5289 120.6231 204° Southwest 399 459 39,300  Level Aus ATC (RADAR)
08:40AM -21.5924 120.5982 200° South 404 465 39,300  Level Aus ATC (RADAR)
08:41AM -21.6628 120.5688 201° Southwest 405 466 39,300  Level Aus ATC (RADAR)
08:41AM -21.7151 120.5463 202° Southwest 404 465 39,300  Level Aus ATC (RADAR)
08:42AM -21.7841 120.5155 203° Southwest 403 464 39,300  Level Aus ATC (RADAR)
08:43AM -21.8276 120.4966 202° Southwest 402 463 39,300  Level Aus ATC (RADAR)
08:43AM -21.8888 120.4704 202° Southwest 403 464 39,300  Level Aus ATC (RADAR)
08:44AM -21.9602 120.4411 201° Southwest 407 468 39,300  Level Aus ATC (RADAR)
08:44AM -22.0109 120.4177 203° Southwest 402 463 39,300  Level Aus ATC (RADAR)
08:45AM -22.0723 120.3915 202° Southwest 403 464 39,300  Level Aus ATC (RADAR)
08:45AM -22.1250 120.3690 202° Southwest 405 466 39,300 240 Level Aus ATC (RADAR)
08:46AM -22.1940 120.3385 202° Southwest 402 463 39,600 240 Climbing Aus ATC (RADAR)
08:47AM -22.2544 120.3119 202° Southwest 404 465 39,600  Level Aus ATC (RADAR)
08:47AM -22.3157 120.2853 202° Southwest 404 465 39,600  Level Aus ATC (RADAR)
08:48AM -22.3763 120.2591 202° Southwest 401 461 39,600  Level Aus ATC (RADAR)
08:48AM -22.4384 120.2333 201° Southwest 405 466 39,600  Level Aus ATC (RADAR)
08:49AM -22.5177 120.1997 201° Southwest 406 467 39,600  Level Aus ATC (RADAR)
08:50AM -22.5778 120.1728 202° Southwest 403 464 39,600  Level Aus ATC (RADAR)
08:50AM -22.6376 120.1460 203° Southwest 400 460 39,600 300 Level Aus ATC (RADAR)
08:51AM -22.7085 120.1159 201° Southwest 406 467 40,000 300 Climbing Aus ATC (RADAR)
08:51AM -22.7601 120.0929 202° Southwest 402 463 40,000  Level Aus ATC (RADAR)
08:52AM -22.8207 120.0662 202° Southwest 403 464 40,000  Level Aus ATC (RADAR)
08:53AM -22.8726 120.0433 202° Southwest 403 464 40,000  Level Aus ATC (RADAR)
08:53AM -22.9247 120.0204 202° Southwest 402 463 40,000  Level Aus ATC (RADAR)
08:54AM -22.9873 119.9940 201° Southwest 409 471 40,000  Level Aus ATC (RADAR)
08:54AM -23.0745 119.9556 202° Southwest 406 467 40,000  Level Aus ATC (RADAR)
08:55AM -23.1270 119.9324 202° Southwest 407 468 40,000  Level Aus ATC (RADAR)
08:56AM -23.1887 119.9052 202° Southwest 409 471 40,000  Level Aus ATC (RADAR)
08:56AM -23.2604 119.8742 202° Southwest 412 474 40,000  Level Aus ATC (RADAR)
08:57AM -23.3125 119.8509 202° Southwest 408 470 40,000  Level Aus ATC (RADAR)
08:57AM -23.3755 119.8238 202° Southwest 413 475 40,000  Level Aus ATC (RADAR)
08:58AM -23.4451 119.7928 202° Southwest 408 470 40,000  Level Aus ATC (RADAR)
08:58AM -23.4973 119.7709 201° Southwest 405 466 40,000  Level Aus ATC (RADAR)
08:59AM -23.5882 119.7335 201° Southwest 416 479 40,000  Level Aus ATC (RADAR)
09:00AM -23.7044 119.6849 201° Southwest 413 475 40,000  Level Aus ATC (RADAR)
09:01AM -23.8105 119.6403 201° Southwest 411 473 40,000  Level Aus ATC (RADAR)
09:03AM -23.9364 119.5877 201° Southwest 413 475 40,000  Level Aus ATC (RADAR)
09:04AM -24.0447 119.5422 201° Southwest 415 478 40,000  Level Aus ATC (RADAR)
09:05AM -24.1630 119.4923 201° Southwest 420 483 40,000  Level Aus ATC (RADAR)
09:06AM -24.2899 119.4392 201° Southwest 419 482 40,000  Level Aus ATC (RADAR)
09:07AM -24.4013 119.3920 201° Southwest 426 490 40,000  Level Aus ATC (RADAR)
09:08AM -24.5223 119.3410 201° Southwest 430 495 40,000  Level Aus ATC (RADAR)
09:09AM -24.6450 119.2890 201° Southwest 435 501 40,000  Level Aus ATC (RADAR)
09:10AM -24.7667 119.2374 201° Southwest 431 496 40,000  Level Aus ATC (RADAR)
09:11AM -24.8867 119.1866 201° Southwest 427 491 40,000  Level Aus ATC (RADAR)
09:12AM -25.0074 119.1349 201° Southwest 430 495 40,000  Level Aus ATC (RADAR)
09:13AM -25.1292 119.0831 201° Southwest 434 499 40,000  Level Aus ATC (RADAR)
09:14AM -25.2522 119.0306 201° Southwest 437 503 40,000  Level Aus ATC (RADAR)
09:15AM -25.3853 118.9729 201° Southwest 443 510 40,000  Level Aus ATC (RADAR)
09:16AM -25.4982 118.9241 201° Southwest 436 502 40,000  Level Aus ATC (RADAR)
09:18AM -25.6193 118.8721 201° Southwest 433 498 40,000  Level Aus ATC (RADAR)
09:19AM -25.7406 118.8193 201° Southwest 433 498 40,000  Level Aus ATC (RADAR)
09:20AM -25.8628 118.7665 201° Southwest 436 502 40,000  Level Aus ATC (RADAR)
09:21AM -25.9836 118.7141 201° Southwest 432 497 40,000  Level Aus ATC (RADAR)
09:22AM -26.1049 118.6623 201° Southwest 433 498 40,000  Level Aus ATC (RADAR)
09:23AM -26.2279 118.6075 202° Southwest 439 505 40,000  Level Aus ATC (RADAR)
09:24AM -26.3501 118.5530 202° Southwest 438 504 40,000  Level Aus ATC (RADAR)
09:25AM -26.4609 118.5089 200° South 429 494 40,000  Level Aus ATC (RADAR)
09:26AM -26.5739 118.4592 201° Southwest 435 501 40,000  Level Aus ATC (RADAR)
09:27AM -26.7071 118.3956 203° Southwest 444 511 40,000  Level Aus ATC (RADAR)
09:28AM -26.7630 118.3712 201° Southwest 440 506 40,000  Level Aus ATC (RADAR)
09:29AM -26.8902 118.3195 200° South 531 611 40,000  Level Aus ATC (RADAR)
09:32AM -27.2749 118.1469 202° Southwest 38,000  Descending Aus ATC (Calculated)
09:34AM -27.4274 118.0780 202° Southwest  Level FlightAware Approximate
09:35AM -27.5462 118.0243 202° Southwest  Level FlightAware Approximate
09:35AM -27.5952 118.0021 204° Southwest 38,000  Level Aus ATC (Calculated)
09:36AM -27.6650 117.9704 202° Southwest  Level FlightAware Approximate
09:37AM -27.8031 117.9076 202° Southwest  Level FlightAware Approximate
09:37AM -27.7595 117.9213 202° Southwest 447 514 40,000  Level Aus ATC (RADAR)
09:38AM -27.8711 117.8673 203° Southwest 439 505 40,000  Level Aus ATC (RADAR)
09:39AM -27.9920 117.8125 202° Southwest 432 497 40,000  Level Aus ATC (RADAR)
09:40AM -28.1141 117.7581 201° Southwest 437 503 40,000  Level Aus ATC (RADAR)
09:41AM -28.2331 117.6970 204° Southwest 432 497 40,000  Level Aus ATC (RADAR)
09:42AM -28.3566 117.6400 202° Southwest 442 509 40,000  Level Aus ATC (RADAR)
09:43AM -28.4795 117.5873 201° Southwest 435 501 40,000  Level Aus ATC (RADAR)
09:45AM -28.6239 117.5207 202° Southwest 412 474 40,000  Level Aus ATC (RADAR)
09:46AM -28.7403 117.4707 201° Southwest 414 476 40,000  Level Aus ATC (RADAR)
09:47AM -28.8557 117.4164 202° Southwest 413 475 40,000  Level Aus ATC (RADAR)
09:48AM -28.9739 117.3668 200° South 416 479 40,000 -180 Level Aus ATC (RADAR)
09:49AM -29.0909 117.3098 203° Southwest 422 486 39,700 -180 Descending Aus ATC (RADAR)
09:50AM -29.2010 117.2617 201° Southwest 420 483 39,700  Level Aus ATC (RADAR)
09:51AM -29.3184 117.2050 203° Southwest 422 486 39,700  Level Aus ATC (RADAR)
09:52AM -29.4365 117.1516 201° Southwest 425 489 39,700  Level Aus ATC (RADAR)
09:53AM -29.5550 117.0980 201° Southwest 421 484 39,700  Level Aus ATC (RADAR)
09:54AM -29.6647 117.0462 202° Southwest 427 491 39,700  Level Aus ATC (RADAR)
09:55AM -29.7851 116.9899 202° Southwest 433 498 39,700  Level Aus ATC (RADAR)
09:56AM -29.9051 116.9335 202° Southwest 427 491 39,700 -780 Level Aus ATC (RADAR)
09:57AM -30.0173 116.8820 202° Southwest 436 502 38,100 -1,560 Descending Aus ATC (RADAR)
09:58AM -30.1361 116.8250 203° Southwest 419 482 36,500 -2,040 Descending Aus ATC (RADAR)
10:00AM -30.2705 116.7630 202° Southwest 387 445 33,300 -2,460 Descending Aus ATC (RADAR)
10:01AM -30.3821 116.7101 202° Southwest 399 459 30,600 -2,280 Descending Aus ATC (RADAR)
10:02AM -30.4865 116.6610 202° Southwest 362 417 28,400 -1,920 Descending Aus ATC (RADAR)
10:03AM -30.5785 116.6200 201° Southwest 355 409 26,600 -1,920 Descending Aus ATC (RADAR)
10:04AM -30.6855 116.5784 198° South 368 423 24,400 -2,100 Descending Aus ATC (RADAR)
10:05AM -30.7922 116.5372 198° South 373 429 22,200 -2,040 Descending Aus ATC (RADAR)
10:06AM -30.8918 116.4988 198° South 377 434 20,300 -1,980 Descending Aus ATC (RADAR)
10:07AM -30.9989 116.4570 199° South 371 427 18,100 -2,040 Descending Aus ATC (RADAR)
10:08AM -31.0938 116.4199 198° South 353 406 16,100 -1,860 Descending Aus ATC (RADAR)
10:09AM -31.1861 116.3842 198° South 314 361 14,300 -1,620 Descending Aus ATC (RADAR)
10:10AM -31.2716 116.3600 194° South 289 333 12,600 -1,500 Descending Aus ATC (RADAR)
10:11AM -31.3569 116.3711 174° South 280 322 11,100 -1,320 Descending Aus ATC (RADAR)
10:12AM -31.4065 116.3177 223° Southwest 235 270 9,900 -1,080 Descending Aus ATC (RADAR)
10:13AM -31.4677 116.2691 214° Southwest 255 293 8,900 -1,380 Descending Aus ATC (RADAR)
10:15AM -31.5372 116.2145 214° Southwest 254 292 6,900 -1,620 Descending Aus ATC (RADAR)
10:16AM -31.5948 116.1691 214° Southwest 245 282 5,500 -1,260 Descending Aus ATC (RADAR)
10:17AM -31.6550 116.1214 214° Southwest 235 270 4,300 -840 Descending Aus ATC (RADAR)
10:18AM -31.7118 116.0765 214° Southwest 217 250 3,700 -480 Descending Aus ATC (RADAR)
10:19AM -31.7582 116.0393 214° Southwest 196 226 3,300 -540 Descending Aus ATC (RADAR)
10:20AM -31.7990 116.0073 214° Southwest 157 181 2,600 -720 Descending Aus ATC (RADAR)
10:21AM -31.8398 115.9946 195° South 135 155 1,800 -720 Descending Aus ATC (RADAR)
10:22AM -31.8712 115.9852 194° South 111 128 1,200 -600 Descending Aus ATC (RADAR)
10:23AM -31.9049 115.9756 194° South 118 136 600 -600 Descending Aus ATC (RADAR)